createdAt,value
2019-05-18T00:00:16.596Z,100131.91
2019-05-18T00:04:40.853Z,100135.98
2019-05-18T00:09:07.323Z,100138.50
2019-05-18T00:13:31.921Z,100132.92
2019-05-18T00:17:55.760Z,100129.98
2019-05-18T00:22:19.963Z,100130.98
2019-05-18T00:26:44.352Z,100136.72
2019-05-18T00:31:08.342Z,100136.72
2019-05-18T00:35:32.553Z,100135.20
2019-05-18T00:39:56.707Z,100142.50
2019-05-18T00:44:20.929Z,100144.30
2019-05-18T00:48:45.442Z,100142.75
2019-05-18T00:53:10.021Z,100142.05
2019-05-18T00:57:35.379Z,100143.72
2019-05-18T01:02:00.158Z,100134.43
2019-05-18T01:06:24.029Z,100130.25
2019-05-18T01:10:47.923Z,100128.34
2019-05-18T01:15:12.921Z,100133.94
2019-05-18T01:19:36.923Z,100128.23
2019-05-18T01:24:00.906Z,100123.81
2019-05-18T01:28:24.994Z,100124.31
2019-05-18T01:32:49.317Z,100118.37
2019-05-18T01:37:13.443Z,100112.66
2019-05-18T01:41:37.574Z,100116.25
2019-05-18T01:46:01.461Z,100119.23
2019-05-18T01:50:25.362Z,100126.94
2019-05-18T01:54:49.307Z,100118.25
2019-05-18T01:59:13.430Z,100113.61
2019-05-18T02:03:37.624Z,100118.40
2019-05-18T02:08:01.811Z,100125.77
2019-05-18T02:12:25.687Z,100121.02
2019-05-18T02:16:49.903Z,100122.72
2019-05-18T02:21:13.761Z,100119.38
2019-05-18T02:25:37.664Z,100114.52
2019-05-18T02:30:02.012Z,100111.08
2019-05-18T02:34:26.053Z,100113.45
2019-05-18T02:38:50.342Z,100107.52
2019-05-18T02:43:15.893Z,100108.25
2019-05-18T02:47:40.846Z,100103.97
2019-05-18T02:52:06.300Z,100106.47
2019-05-18T02:56:31.685Z,100105.37
2019-05-18T03:00:55.939Z,100099.91
2019-05-18T03:05:20.075Z,100100.72
2019-05-18T03:09:44.345Z,100099.16
2019-05-18T03:14:08.765Z,100095.36
2019-05-18T03:18:33.101Z,100096.04
2019-05-18T03:22:57.574Z,100097.30
2019-05-18T03:27:21.899Z,100090.89
2019-05-18T03:31:45.781Z,100090.89
2019-05-18T03:36:10.902Z,100096.56
2019-05-18T03:40:34.909Z,100100.80
2019-05-18T03:44:59.067Z,100088.55
2019-05-18T03:49:27.493Z,100094.48
2019-05-18T03:53:48.892Z,100094.92
2019-05-18T03:58:12.775Z,100089.23
2019-05-18T04:02:36.679Z,100092.52
2019-05-18T04:07:00.562Z,100095.48
2019-05-18T04:11:24.413Z,100094.76
2019-05-18T04:15:49.248Z,100096.88
2019-05-18T04:20:13.482Z,100089.54
2019-05-18T04:24:37.619Z,100091.66
2019-05-18T04:29:01.631Z,100089.05
2019-05-18T04:33:27.689Z,100090.47
2019-05-18T04:37:52.037Z,100091.42
2019-05-18T04:42:16.042Z,100097.36
2019-05-18T04:46:40.432Z,100099.27
2019-05-18T04:51:04.419Z,100108.53
2019-05-18T04:55:28.820Z,100109.14
2019-05-18T04:59:53.006Z,100109.73
2019-05-18T05:04:17.582Z,100112.98
2019-05-18T05:08:41.730Z,100098.86
2019-05-18T05:13:06.205Z,100103.88
2019-05-18T05:17:30.071Z,100097.36
2019-05-18T05:21:54.697Z,100113.06
2019-05-18T05:26:18.787Z,100110.59
2019-05-18T05:30:42.751Z,100108.11
2019-05-18T05:35:07.986Z,100104.45
2019-05-18T05:39:31.810Z,100105.22
2019-05-18T05:43:55.633Z,100104.63
2019-05-18T05:48:19.745Z,100100.84
2019-05-18T05:52:43.757Z,100104.32
2019-05-18T05:57:07.960Z,100098.61
2019-05-18T06:01:31.998Z,100098.39
2019-05-18T06:05:55.893Z,100102.24
2019-05-18T06:10:20.237Z,100104.97
2019-05-18T06:14:44.282Z,100097.73
2019-05-18T06:19:08.168Z,100102.08
2019-05-18T06:23:32.046Z,100103.14
2019-05-18T06:27:57.214Z,100115.14
2019-05-18T06:32:23.943Z,100108.75
2019-05-18T06:36:48.014Z,100106.94
2019-05-18T06:41:11.884Z,100107.42
2019-05-18T06:45:36.056Z,100112.91
2019-05-18T06:49:59.974Z,100130.00
2019-05-18T06:54:24.241Z,100124.13
2019-05-18T06:58:49.607Z,100127.23
2019-05-18T07:03:13.785Z,100127.23
2019-05-18T07:07:37.653Z,100135.08
2019-05-18T07:12:01.987Z,100132.09
2019-05-18T07:16:26.058Z,100135.69
2019-05-18T07:20:51.164Z,100144.22
2019-05-18T07:25:15.297Z,100141.17
2019-05-18T07:29:39.230Z,100137.78
2019-05-18T07:34:03.442Z,100134.59
2019-05-18T07:38:27.933Z,100140.16
2019-05-18T07:42:52.119Z,100140.16
2019-05-18T07:47:16.323Z,100139.09
2019-05-18T07:51:40.200Z,100137.47
2019-05-18T07:56:06.005Z,100137.47
2019-05-18T08:00:30.196Z,100147.41
2019-05-18T08:04:54.313Z,100145.19
2019-05-18T08:09:18.206Z,100138.10
2019-05-18T08:13:42.534Z,100128.09
2019-05-18T08:18:07.051Z,100128.09
2019-05-18T08:22:31.073Z,100134.34
2019-05-18T08:26:54.981Z,100138.17
2019-05-18T08:31:18.885Z,100134.92
2019-05-18T08:35:42.740Z,100129.27
2019-05-18T08:40:07.152Z,100126.39
2019-05-18T08:44:32.053Z,100113.31
2019-05-18T08:48:55.868Z,100123.09
2019-05-18T08:53:23.754Z,100127.11
2019-05-18T08:57:47.958Z,100130.23
2019-05-18T09:02:11.890Z,100127.19
2019-05-18T09:06:35.782Z,100124.26
2019-05-18T09:10:59.663Z,100127.51
2019-05-18T09:15:24.859Z,100133.88
2019-05-18T09:19:48.974Z,100130.56
2019-05-18T09:24:13.490Z,100136.73
2019-05-18T09:28:37.683Z,100141.36
2019-05-18T09:33:01.858Z,100142.33
2019-05-18T09:37:25.824Z,100142.33
2019-05-18T09:41:50.041Z,100146.70
2019-05-18T09:46:13.849Z,100146.02
2019-05-18T09:50:37.677Z,100146.83
2019-05-18T09:55:02.699Z,100147.52
2019-05-18T09:59:26.732Z,100142.15
2019-05-18T10:03:50.776Z,100146.96
2019-05-18T10:08:15.161Z,100144.85
2019-05-18T10:12:39.292Z,100145.19
2019-05-18T10:17:03.506Z,100141.52
2019-05-18T10:21:27.486Z,100138.27
2019-05-18T10:25:51.864Z,100137.20
2019-05-18T10:30:16.244Z,100137.20
2019-05-18T10:34:40.882Z,100130.50
2019-05-18T10:39:07.138Z,100131.84
2019-05-18T10:43:32.271Z,100129.16
2019-05-18T10:47:56.567Z,100126.23
2019-05-18T10:52:22.265Z,100127.55
2019-05-18T10:56:46.441Z,100119.00
2019-05-18T11:01:15.413Z,100123.09
2019-05-18T11:05:58.617Z,100124.69
2019-05-18T11:10:46.163Z,100118.47
2019-05-18T11:15:29.199Z,100115.72
2019-05-18T11:20:15.399Z,100113.77
2019-05-18T11:24:59.257Z,100113.48
2019-05-18T11:29:43.123Z,100110.44
2019-05-18T11:34:27.044Z,100104.69
2019-05-18T11:39:09.018Z,100106.15
2019-05-18T11:43:49.328Z,100109.84
2019-05-18T11:48:20.584Z,100100.47
2019-05-18T11:52:44.415Z,100101.53
2019-05-18T11:57:17.750Z,100089.41
2019-05-18T12:01:42.066Z,100090.39
2019-05-18T12:06:16.094Z,100083.70
2019-05-18T12:10:40.903Z,100084.70
2019-05-18T12:15:23.267Z,100084.56
2019-05-18T12:19:47.407Z,100086.28
2019-05-18T12:24:15.328Z,100086.36
2019-05-18T12:28:37.944Z,100081.66
2019-05-18T12:33:02.832Z,100083.19
2019-05-18T12:37:27.878Z,100087.68
2019-05-18T12:41:51.811Z,100081.75
2019-05-18T12:46:20.952Z,100077.37
2019-05-18T12:50:45.059Z,100080.42
2019-05-18T12:55:09.717Z,100074.64
2019-05-18T12:59:33.799Z,100079.32
2019-05-18T13:04:02.169Z,100075.02
2019-05-18T13:08:26.441Z,100070.31
2019-05-18T13:12:50.457Z,100077.97
2019-05-18T13:17:14.822Z,100074.31
2019-05-18T13:21:38.952Z,100069.42
2019-05-18T13:26:03.921Z,100066.42
2019-05-18T13:30:30.013Z,100066.42
2019-05-18T13:34:54.679Z,100065.66
2019-05-18T13:39:19.185Z,100061.24
2019-05-18T13:43:44.067Z,100060.65
2019-05-18T13:48:08.257Z,100057.13
2019-05-18T13:52:32.366Z,100060.13
2019-05-18T13:56:56.426Z,100042.50
2019-05-18T14:01:20.889Z,100043.92
2019-05-18T14:05:50.520Z,100038.16
2019-05-18T14:10:15.031Z,100041.43
2019-05-18T14:14:47.634Z,100041.95
2019-05-18T14:19:12.270Z,100041.30
2019-05-18T14:23:36.702Z,100052.23
2019-05-18T14:28:00.817Z,100049.64
2019-05-18T14:32:26.134Z,100046.85
2019-05-18T14:36:50.657Z,100052.66
2019-05-18T14:41:20.405Z,100051.36
2019-05-18T14:45:44.515Z,100055.77
2019-05-18T14:50:09.130Z,100047.59
2019-05-18T14:54:38.848Z,100053.23
2019-05-18T14:59:03.846Z,100048.09
2019-05-18T15:03:28.031Z,100043.57
2019-05-18T15:07:52.272Z,100056.14
2019-05-18T15:12:16.795Z,100049.72
2019-05-18T15:16:52.969Z,100046.81
2019-05-18T15:21:18.080Z,100042.69
2019-05-18T15:26:07.941Z,100046.19
2019-05-18T15:30:32.831Z,100048.27
2019-05-18T15:34:58.233Z,100044.81
2019-05-18T15:39:22.427Z,100049.70
2019-05-18T15:43:46.633Z,100040.72
2019-05-18T15:48:11.828Z,100039.91
2019-05-18T15:52:37.622Z,100035.03
2019-05-18T15:57:01.645Z,100043.22
2019-05-18T16:01:25.930Z,100047.72
2019-05-18T16:05:50.149Z,100048.08
2019-05-18T16:10:15.842Z,100045.45
2019-05-18T16:14:43.652Z,100037.29
2019-05-18T16:19:08.611Z,100028.98
2019-05-18T16:23:32.925Z,100037.62
2019-05-18T16:27:57.856Z,100036.83
2019-05-18T16:32:21.987Z,100040.95
2019-05-18T16:36:47.391Z,100035.02
2019-05-18T16:41:11.587Z,100040.37
2019-05-18T16:45:36.824Z,100041.64
2019-05-18T16:50:01.865Z,100041.52
2019-05-18T16:54:26.395Z,100040.67
2019-05-18T16:58:50.822Z,100034.88
2019-05-18T17:03:16.319Z,100029.37
2019-05-18T17:07:40.505Z,100036.50
2019-05-18T17:12:05.854Z,100042.29
2019-05-18T17:16:30.055Z,100049.20
2019-05-18T17:20:54.209Z,100045.73
2019-05-18T17:25:18.508Z,100043.50
2019-05-18T17:29:42.629Z,100050.63
2019-05-18T17:34:08.977Z,100058.76
2019-05-18T17:38:32.851Z,100058.90
2019-05-18T17:42:57.066Z,100063.59
2019-05-18T17:47:20.948Z,100059.20
2019-05-18T17:51:45.130Z,100062.14
2019-05-18T17:56:09.263Z,100067.23
2019-05-18T18:00:33.297Z,100067.45
2019-05-18T18:04:57.461Z,100076.56
2019-05-18T18:09:22.285Z,100079.09
2019-05-18T18:13:47.031Z,100074.09
2019-05-18T18:18:11.206Z,100076.75
2019-05-18T18:22:35.475Z,100083.79
2019-05-18T18:26:59.966Z,100083.95
2019-05-18T18:31:24.788Z,100084.70
2019-05-18T18:35:48.901Z,100084.47
2019-05-18T18:40:13.486Z,100089.50
2019-05-18T18:44:37.593Z,100089.81
2019-05-18T18:49:01.769Z,100099.61
2019-05-18T18:53:26.584Z,100102.03
2019-05-18T18:57:50.797Z,100099.95
2019-05-18T19:02:15.306Z,100103.72
2019-05-18T19:06:39.514Z,100114.44
2019-05-18T19:11:04.008Z,100125.33
2019-05-18T19:15:29.505Z,100125.55
2019-05-18T19:19:53.616Z,100119.79
2019-05-18T19:24:17.859Z,100130.63
2019-05-18T19:28:42.571Z,100129.10
2019-05-18T19:33:06.803Z,100130.62
2019-05-18T19:37:31.294Z,100135.47
2019-05-18T19:41:55.489Z,100136.14
2019-05-18T19:46:19.694Z,100143.81
2019-05-18T19:50:45.021Z,100141.56
2019-05-18T19:55:17.369Z,100146.22
2019-05-18T19:59:41.492Z,100153.85
2019-05-18T20:04:06.226Z,100155.52
2019-05-18T20:08:31.323Z,100150.91
2019-05-18T20:12:55.602Z,100160.55
2019-05-18T20:17:19.860Z,100160.55
2019-05-18T20:21:44.934Z,100154.61
2019-05-18T20:26:08.815Z,100152.91
2019-05-18T20:30:32.797Z,100154.59
2019-05-18T20:34:57.142Z,100149.62
2019-05-18T20:39:21.384Z,100146.98
2019-05-18T20:43:45.597Z,100144.52
2019-05-18T20:48:09.901Z,100144.52
2019-05-18T20:52:33.961Z,100151.78
2019-05-18T20:56:57.830Z,100158.74
2019-05-18T21:01:22.040Z,100161.20
2019-05-18T21:05:46.843Z,100157.23
2019-05-18T21:10:12.397Z,100143.53
2019-05-18T21:14:36.776Z,100138.72
2019-05-18T21:19:06.596Z,100133.07
2019-05-18T21:23:30.748Z,100132.04
2019-05-18T21:27:54.888Z,100125.75
2019-05-18T21:32:21.831Z,100137.27
2019-05-18T21:36:45.720Z,100137.27
2019-05-18T21:41:09.593Z,100137.61
2019-05-18T21:45:34.348Z,100131.66
2019-05-18T21:49:58.668Z,100133.62
2019-05-18T21:54:23.714Z,100135.25
2019-05-18T21:58:47.848Z,100139.55
2019-05-18T22:03:12.723Z,100136.22
2019-05-18T22:07:36.514Z,100133.23
2019-05-18T22:12:00.806Z,100129.92
2019-05-18T22:16:24.940Z,100118.39
2019-05-18T22:20:49.562Z,100118.87
2019-05-18T22:25:13.693Z,100108.48
2019-05-18T22:29:38.495Z,100117.38
2019-05-18T22:34:04.123Z,100118.04
2019-05-18T22:38:28.717Z,100109.44
2019-05-18T22:42:53.841Z,100109.44
2019-05-18T22:47:18.023Z,100110.12
2019-05-18T22:51:42.291Z,100112.09
2019-05-18T22:56:07.731Z,100111.11
2019-05-18T23:00:31.976Z,100110.23
2019-05-18T23:04:56.027Z,100110.23
2019-05-18T23:09:20.069Z,100106.06
2019-05-18T23:13:44.406Z,100117.21
2019-05-18T23:18:08.633Z,100112.25
2019-05-18T23:22:32.496Z,100111.70
2019-05-18T23:26:56.535Z,100108.37
2019-05-18T23:31:21.839Z,100107.84
2019-05-18T23:35:46.184Z,100101.69
2019-05-18T23:40:10.336Z,100106.78
2019-05-18T23:44:34.818Z,100101.45
2019-05-18T23:49:10.031Z,100099.57
2019-05-18T23:53:25.530Z,100103.59
2019-05-18T23:57:50.640Z,100096.78
